createdAt,value
2023-04-22T00:08:37.708Z,13.43
2023-04-22T00:18:46.991Z,12.51
2023-04-22T00:28:56.183Z,14.19
2023-04-22T00:39:05.073Z,14.06
2023-04-22T00:49:14.005Z,12.47
2023-04-22T00:59:23.357Z,16.22
2023-04-22T01:09:32.318Z,17.02
2023-04-22T01:19:40.886Z,17.55
2023-04-22T01:29:49.434Z,17.4
2023-04-22T01:39:58.175Z,13.66
2023-04-22T01:50:06.868Z,14.06
2023-04-22T02:00:17.093Z,13.04
2023-04-22T02:10:24.830Z,17.4
2023-04-22T02:20:34.387Z,13.97
2023-04-22T02:30:47.119Z,15.24
2023-04-22T02:40:45.864Z,15.3
2023-04-22T02:50:54.522Z,16.28
2023-04-22T03:01:03.313Z,17.32
2023-04-22T03:11:12.127Z,17.75
2023-04-22T03:21:13.882Z,18.24
2023-04-22T03:31:23.775Z,23.2
2023-04-22T03:41:32.484Z,17.76
2023-04-22T03:51:41.139Z,26.87
2023-04-22T04:01:50.262Z,21.47
2023-04-22T04:11:59.147Z,21.73
2023-04-22T04:22:07.866Z,18.38
2023-04-22T04:32:16.454Z,19.72
2023-04-22T04:42:25.601Z,16.74
2023-04-22T04:52:34.371Z,16.19
2023-04-22T05:02:43.318Z,21.06
2023-04-22T05:12:51.898Z,20.95
2023-04-22T05:23:00.721Z,19.75
2023-04-22T05:33:09.497Z,19.09
2023-04-22T05:43:18.357Z,19.75
2023-04-22T05:53:18.776Z,23.06
2023-04-22T06:03:28.930Z,18.6
2023-04-22T06:13:37.644Z,22.63
2023-04-22T06:23:46.483Z,24.14
2023-04-22T06:33:57.105Z,25.06
2023-04-22T06:43:58.833Z,23.07
2023-04-22T06:54:07.611Z,23.06
2023-04-22T07:04:16.458Z,25.69
2023-04-22T07:14:25.157Z,20.34
2023-04-22T07:24:34.099Z,16.55
2023-04-22T07:34:43.048Z,20.73
2023-04-22T07:44:58.448Z,19.14
2023-04-22T07:54:57.660Z,16.3
2023-04-22T08:05:06.534Z,13.97
2023-04-22T08:15:15.369Z,14.28
2023-04-22T08:25:24.154Z,15.13
2023-04-22T08:35:32.851Z,15.07
2023-04-22T08:45:41.777Z,12.85
2023-04-22T08:55:50.565Z,16.2
2023-04-22T09:05:59.220Z,11.99
2023-04-22T09:16:07.999Z,11.43
2023-04-22T09:26:16.686Z,12.33
2023-04-22T09:36:26.513Z,14.34
2023-04-22T09:46:35.202Z,12.49
2023-04-22T09:56:44.046Z,12.54
2023-04-22T10:06:55.514Z,13.54
2023-04-22T10:16:57.409Z,9.82
2023-04-22T10:26:57.040Z,12.3
2023-04-22T10:37:04.128Z,10.97
2023-04-22T10:47:12.862Z,12.06
2023-04-22T10:57:22.825Z,13.32
2023-04-22T11:07:31.418Z,11.52
2023-04-22T11:17:41.254Z,16.24
2023-04-22T11:27:51.730Z,20.03
2023-04-22T11:37:50.637Z,14.72
2023-04-22T11:48:01.831Z,15.95
2023-04-22T11:58:00.702Z,19.95
2023-04-22T12:08:09.632Z,12.16
2023-04-22T12:18:18.424Z,16.86
2023-04-22T12:28:28.983Z,8.71
2023-04-22T12:38:29.187Z,14.59
2023-04-22T12:48:28.946Z,14.17
2023-04-22T12:58:37.859Z,15.23
2023-04-22T13:08:46.812Z,13.14
2023-04-22T13:18:55.607Z,14.76
2023-04-22T13:29:04.856Z,11.22
2023-04-22T13:39:13.596Z,10.91
2023-04-22T13:49:22.272Z,14.22
2023-04-22T13:59:32.299Z,12.39
2023-04-22T14:09:40.551Z,11.35
2023-04-22T14:19:48.523Z,11.11
2023-04-22T14:29:58.491Z,10.29
2023-04-22T14:39:57.392Z,13.58
2023-04-22T14:50:06.397Z,13.55
2023-04-22T15:00:15.502Z,12.31
2023-04-22T15:10:24.362Z,13.57
2023-04-22T15:20:33.385Z,15.27
2023-04-22T15:30:45.404Z,12.87
2023-04-22T15:40:44.707Z,16.2
2023-04-22T15:50:53.491Z,11.57
2023-04-22T16:01:11.754Z,13.89
2023-04-22T16:11:10.037Z,12.64
2023-04-22T16:21:18.743Z,13.43
2023-04-22T16:31:27.664Z,13.34
2023-04-22T16:41:36.513Z,11.81
2023-04-22T16:51:45.358Z,14.15
2023-04-22T17:01:54.264Z,14.86
2023-04-22T17:12:02.918Z,12.27
2023-04-22T17:22:12.605Z,16.02
2023-04-22T17:32:21.299Z,15.07
2023-04-22T17:42:35.385Z,15.4
2023-04-22T17:52:36.940Z,16.07
2023-04-22T18:02:46.718Z,15.9
2023-04-22T18:12:48.851Z,16.04
2023-04-22T18:22:57.632Z,16.43
2023-04-22T18:33:06.333Z,15.76
2023-04-22T18:43:15.083Z,16.61
2023-04-22T18:53:34.081Z,16.95
2023-04-22T19:03:30.455Z,16.26
2023-04-22T19:13:31.028Z,16.68
2023-04-22T19:23:42.627Z,13.57
2023-04-22T19:33:43.836Z,14.8
2023-04-22T19:43:44.675Z,16.41
2023-04-22T19:54:10.726Z,14.04
2023-04-22T20:04:41.999Z,13.32
2023-04-22T20:14:00.192Z,15.22
2023-04-22T20:24:05.138Z,21.18
2023-04-22T20:34:13.263Z,17.09
2023-04-22T20:44:18.002Z,23.04
2023-04-22T20:54:28.823Z,16.23
2023-04-22T21:04:29.276Z,17.85
2023-04-22T21:14:26.410Z,18.14
2023-04-22T21:24:27.850Z,20.43
2023-04-22T21:34:29.712Z,17.92
2023-04-22T21:44:38.849Z,18.51
2023-04-22T21:54:46.894Z,17.33
2023-04-22T22:04:47.589Z,18.08
2023-04-22T22:14:59.086Z,18.07
2023-04-22T22:25:09.113Z,16.82
2023-04-22T22:35:08.088Z,17.18
2023-04-22T22:45:18.046Z,18.14
2023-04-22T22:55:17.000Z,18.83
2023-04-22T23:05:25.952Z,16.36
2023-04-22T23:15:36.077Z,13.31
2023-04-22T23:25:37.971Z,19.22
2023-04-22T23:35:36.856Z,17.59
2023-04-22T23:45:45.641Z,18.47
2023-04-22T23:55:54.402Z,17.7
